Northtown, Illinois
Current Conditions -  °F | °C
As of 3:51 AM on Sunday 26 Oct 2014 (Local Time) from KORD Reporting Station
Clear Clear  
Wind Chill: 42°   Ceiling: Unl
Heat Index: 46°   Visibility: 10mi
Dew Point: 29°   Wind: 8mph
Humidity: 51%   Direction: 300°WNW
Pressure: 30"   Gusts: NA
Location:  41.991°N, 87.7047°W
Report Text: KORD 260851Z 30007KT 10SM CLR 08/M02 A3000 RMK AO2 SLP157 T00781017 50007
Loading
Personal Weather Stations






























Interactive Weather Map
Tropical Storm Tracking
New forecast layout! Learn more

10-Day Weather Forecast

Advertisements
Track Severe Weather on mobile